createdAt,value
2023-05-13T00:02:21.775Z,95406.63
2023-05-13T00:04:49.464Z,95406.63
2023-05-13T00:07:17.097Z,95421.25
2023-05-13T00:09:44.696Z,95408.66
2023-05-13T00:12:12.491Z,95415.16
2023-05-13T00:14:40.082Z,95408.06
2023-05-13T00:17:09.068Z,95413.97
2023-05-13T00:19:36.700Z,95417.63
2023-05-13T00:22:04.815Z,95418.81
2023-05-13T00:24:32.476Z,95419.44
2023-05-13T00:27:00.466Z,95426.56
2023-05-13T00:29:28.099Z,95423.72
2023-05-13T00:31:56.073Z,95418.44
2023-05-13T00:34:25.270Z,95412.31
2023-05-13T00:36:53.183Z,95417.22
2023-05-13T00:39:20.976Z,95415.16
2023-05-13T00:41:48.671Z,95416.00
2023-05-13T00:44:16.309Z,95421.25
2023-05-13T00:46:44.009Z,95417.22
2023-05-13T00:49:11.824Z,95415.78
2023-05-13T00:51:40.860Z,95419.84
2023-05-13T00:54:08.648Z,95424.97
2023-05-13T00:56:38.624Z,95422.69
2023-05-13T00:59:07.751Z,95423.34
2023-05-13T01:01:45.486Z,95422.94
2023-05-13T01:04:25.636Z,95423.50
2023-05-13T01:07:09.321Z,95430.63
2023-05-13T01:09:49.943Z,95422.50
2023-05-13T01:12:43.398Z,95439.22
2023-05-13T01:15:15.673Z,95430.25
2023-05-13T01:17:51.294Z,95436.78
2023-05-13T01:20:22.366Z,95426.19
2023-05-13T01:22:52.074Z,95421.69
2023-05-13T01:25:19.977Z,95430.84
2023-05-13T01:27:47.910Z,95436.38
2023-05-13T01:30:18.037Z,95433.91
2023-05-13T01:32:46.672Z,95432.25
2023-05-13T01:35:17.423Z,95426.56
2023-05-13T01:37:47.822Z,95430.44
2023-05-13T01:40:31.226Z,95429.00
2023-05-13T01:43:03.250Z,95431.03
2023-05-13T01:45:32.381Z,95433.06
2023-05-13T01:48:01.169Z,95428.59
2023-05-13T01:50:38.083Z,95432.06
2023-05-13T01:53:06.643Z,95435.91
2023-05-13T01:55:35.722Z,95432.25
2023-05-13T01:58:05.173Z,95435.50
2023-05-13T02:00:33.254Z,95430.22
2023-05-13T02:03:00.976Z,95432.25
2023-05-13T02:05:28.914Z,95429.44
2023-05-13T02:07:57.391Z,95427.81
2023-05-13T02:10:25.269Z,95429.44
2023-05-13T02:12:54.984Z,95429.06
2023-05-13T02:15:22.804Z,95431.88
2023-05-13T02:17:51.196Z,95434.34
2023-05-13T02:20:20.487Z,95423.78
2023-05-13T02:22:48.640Z,95421.31
2023-05-13T02:25:16.282Z,95430.09
2023-05-13T02:27:44.195Z,95432.31
2023-05-13T02:30:13.819Z,95426.03
2023-05-13T02:32:44.056Z,95423.38
2023-05-13T02:35:11.820Z,95422.75
2023-05-13T02:37:40.041Z,95418.50
2023-05-13T02:40:09.317Z,95424.56
2023-05-13T02:42:37.249Z,95421.91
2023-05-13T02:45:05.806Z,95422.13
2023-05-13T02:47:36.898Z,95418.44
2023-05-13T02:50:09.857Z,95425.34
2023-05-13T02:52:39.405Z,95419.44
2023-05-13T02:55:09.352Z,95423.28
2023-05-13T02:57:38.573Z,95424.13
2023-05-13T03:00:07.990Z,95413.94
2023-05-13T03:02:37.090Z,95419.41
2023-05-13T03:05:05.279Z,95418.38
2023-05-13T03:07:33.214Z,95426.53
2023-05-13T03:10:00.948Z,95418.38
2023-05-13T03:12:29.907Z,95420.63
2023-05-13T03:14:57.546Z,95424.28
2023-05-13T03:17:25.497Z,95414.31
2023-05-13T03:19:54.495Z,95424.28
2023-05-13T03:22:22.094Z,95424.69
2023-05-13T03:24:50.200Z,95437.91
2023-05-13T03:27:20.348Z,95435.63
2023-05-13T03:29:48.511Z,95441.56
2023-05-13T03:32:16.416Z,95430.13
2023-05-13T03:34:44.152Z,95430.69
2023-05-13T03:37:13.150Z,95433.78
2023-05-13T03:39:40.926Z,95441.25
2023-05-13T03:42:09.536Z,95443.03
2023-05-13T03:44:38.820Z,95438.97
2023-05-13T03:47:07.987Z,95450.81
2023-05-13T03:49:37.239Z,95447.91
2023-05-13T03:52:08.372Z,95450.34
2023-05-13T03:54:37.826Z,95445.84
2023-05-13T03:57:05.760Z,95450.16
2023-05-13T03:59:33.395Z,95451.19
2023-05-13T04:02:01.730Z,95453.81
2023-05-13T04:04:29.494Z,95450.75
2023-05-13T04:06:58.621Z,95455.84
2023-05-13T04:09:26.281Z,95463.16
2023-05-13T04:11:55.739Z,95460.91
2023-05-13T04:14:23.856Z,95464.53
2023-05-13T04:16:51.590Z,95460.28
2023-05-13T04:19:19.279Z,95467.19
2023-05-13T04:21:47.531Z,95461.72
2023-05-13T04:24:16.659Z,95468.84
2023-05-13T04:26:44.438Z,95473.47
2023-05-13T04:29:13.670Z,95465.81
2023-05-13T04:31:42.215Z,95473.00
2023-05-13T04:34:10.079Z,95473.88
2023-05-13T04:36:37.788Z,95472.31
2023-05-13T04:39:05.413Z,95471.50
2023-05-13T04:41:33.438Z,95477.38
2023-05-13T04:44:02.645Z,95477.75
2023-05-13T04:46:31.704Z,95481.25
2023-05-13T04:48:59.585Z,95484.16
2023-05-13T04:51:27.844Z,95486.53
2023-05-13T04:53:56.139Z,95484.91
2023-05-13T04:56:23.940Z,95484.53
2023-05-13T04:58:51.679Z,95488.19
2023-05-13T05:01:19.696Z,95496.75
2023-05-13T05:03:49.443Z,95501.38
2023-05-13T05:06:17.582Z,95494.63
2023-05-13T05:08:45.711Z,95493.59
2023-05-13T05:11:14.014Z,95495.88
2023-05-13T05:13:41.934Z,95495.50
2023-05-13T05:16:10.731Z,95495.50
2023-05-13T05:18:41.220Z,95491.03
2023-05-13T05:21:10.576Z,95499.53
2023-05-13T05:23:38.200Z,95504.69
2023-05-13T05:26:11.567Z,95501.59
2023-05-13T05:28:40.530Z,95509.72
2023-05-13T05:31:09.677Z,95510.94
2023-05-13T05:33:37.822Z,95512.97
2023-05-13T05:36:07.482Z,95509.25
2023-05-13T05:38:37.221Z,95512.38
2023-05-13T05:41:06.139Z,95509.31
2023-05-13T05:43:33.789Z,95519.53
2023-05-13T05:46:01.510Z,95517.09
2023-05-13T05:48:29.375Z,95519.75
2023-05-13T05:50:57.368Z,95522.03
2023-05-13T05:53:32.007Z,95516.94
2023-05-13T05:56:02.558Z,95519.59
2023-05-13T05:58:30.839Z,95527.00
2023-05-13T06:01:00.519Z,95525.28
2023-05-13T06:03:28.317Z,95525.78
2023-05-13T06:05:56.009Z,95530.44
2023-05-13T06:08:29.850Z,95527.59
2023-05-13T06:10:58.589Z,95526.19
2023-05-13T06:13:28.304Z,95523.34
2023-05-13T06:15:56.484Z,95534.31
2023-05-13T06:18:24.159Z,95519.06
2023-05-13T06:20:51.879Z,95527.81
2023-05-13T06:23:19.667Z,95527.69
2023-05-13T06:25:47.298Z,95530.38
2023-05-13T06:28:14.916Z,95531.25
2023-05-13T06:30:45.315Z,95533.91
2023-05-13T06:33:13.133Z,95532.28
2023-05-13T06:35:41.204Z,95536.97
2023-05-13T06:38:10.460Z,95534.94
2023-05-13T06:40:38.186Z,95535.59
2023-05-13T06:43:06.839Z,95536.41
2023-05-13T06:45:38.780Z,95540.81
2023-05-13T06:48:08.052Z,95543.53
2023-05-13T06:50:38.254Z,95533.56
2023-05-13T06:53:05.894Z,95543.97
2023-05-13T06:55:35.883Z,95542.09
2023-05-13T06:58:03.487Z,95538.38
2023-05-13T07:00:31.198Z,95540.28
2023-05-13T07:02:58.832Z,95540.31
2023-05-13T07:05:28.040Z,95533.25
2023-05-13T07:07:55.673Z,95546.28
2023-05-13T07:10:23.547Z,95539.16
2023-05-13T07:12:51.522Z,95534.72
2023-05-13T07:15:19.396Z,95536.19
2023-05-13T07:17:47.225Z,95539.81
2023-05-13T07:20:15.116Z,95539.44
2023-05-13T07:22:44.074Z,95540.44
2023-05-13T07:25:12.452Z,95540.44
2023-05-13T07:27:40.251Z,95542.28
2023-05-13T07:30:08.978Z,95549.56
2023-05-13T07:32:37.045Z,95547.94
2023-05-13T07:35:05.255Z,95555.47
2023-05-13T07:37:32.873Z,95550.38
2023-05-13T07:40:01.843Z,95556.47
2023-05-13T07:42:30.098Z,95559.75
2023-05-13T07:44:57.766Z,95556.84
2023-05-13T07:47:27.622Z,95556.47
2023-05-13T07:49:55.692Z,95562.38
2023-05-13T07:52:23.466Z,95566.66
2023-05-13T07:54:51.249Z,95560.16
2023-05-13T07:57:20.370Z,95563.41
2023-05-13T07:59:47.966Z,95572.97
2023-05-13T08:02:15.698Z,95568.28
2023-05-13T08:04:43.329Z,95570.78
2023-05-13T08:07:11.302Z,95565.91
2023-05-13T08:09:38.940Z,95571.19
2023-05-13T08:12:07.079Z,95566.34
2023-05-13T08:14:36.628Z,95566.78
2023-05-13T08:17:06.211Z,95566.63
2023-05-13T08:19:33.896Z,95564.75
2023-05-13T08:22:01.551Z,95568.81
2023-05-13T08:24:29.279Z,95567.66
2023-05-13T08:26:57.115Z,95564.81
2023-05-13T08:29:24.712Z,95568.91
2023-05-13T08:31:54.546Z,95568.28
2023-05-13T08:34:22.259Z,95557.13
2023-05-13T08:36:49.846Z,95560.22
2023-05-13T08:39:17.558Z,95569.38
2023-05-13T08:41:45.877Z,95568.16
2023-05-13T08:44:14.283Z,95572.66
2023-05-13T08:46:45.280Z,95578.16
2023-05-13T08:49:14.873Z,95581.28
2023-05-13T08:51:44.227Z,95585.56
2023-05-13T08:54:11.954Z,95577.63
2023-05-13T08:56:39.683Z,95576.81
2023-05-13T08:59:07.246Z,95577.16
2023-05-13T09:01:35.657Z,95579.41
2023-05-13T09:04:07.300Z,95571.81
2023-05-13T09:06:36.344Z,95574.69
2023-05-13T09:09:05.803Z,95575.13
2023-05-13T09:11:34.690Z,95572.63
2023-05-13T09:14:05.605Z,95576.31
2023-05-13T09:16:33.778Z,95578.56
2023-05-13T09:19:02.201Z,95581.03
2023-05-13T09:21:32.100Z,95582.84
2023-05-13T09:24:13.239Z,95579.19
2023-05-13T09:26:42.945Z,95579.44
2023-05-13T09:29:22.135Z,95577.38
2023-05-13T09:31:51.842Z,95577.59
2023-05-13T09:34:27.532Z,95579.66
2023-05-13T09:37:01.389Z,95579.25
2023-05-13T09:39:33.483Z,95571.50
2023-05-13T09:42:03.859Z,95572.31
2023-05-13T09:44:33.649Z,95571.69
2023-05-13T09:47:02.333Z,95585.75
2023-05-13T09:49:32.433Z,95579.44
2023-05-13T09:52:00.070Z,95588.63
2023-05-13T09:54:28.744Z,95576.34
2023-05-13T09:57:01.351Z,95586.59
2023-05-13T09:59:29.097Z,95590.66
2023-05-13T10:02:00.038Z,95591.47
2023-05-13T10:04:28.869Z,95591.47
2023-05-13T10:06:56.940Z,95589.41
2023-05-13T10:09:25.146Z,95586.94
2023-05-13T10:11:54.443Z,95590.59
2023-05-13T10:14:23.585Z,95588.53
2023-05-13T10:16:52.350Z,95592.81
2023-05-13T10:19:21.439Z,95592.63
2023-05-13T10:21:51.986Z,95602.03
2023-05-13T10:24:21.552Z,95594.28
2023-05-13T10:26:50.369Z,95597.53
2023-05-13T10:29:18.958Z,95591.13
2023-05-13T10:31:49.147Z,95603.38
2023-05-13T10:34:17.801Z,95596.63
2023-05-13T10:37:00.533Z,95599.47
2023-05-13T10:39:47.908Z,95595.19
2023-05-13T10:42:41.338Z,95588.97
2023-05-13T10:45:09.535Z,95589.41
2023-05-13T10:47:39.520Z,95588.72
2023-05-13T10:50:23.027Z,95589.53
2023-05-13T10:52:51.152Z,95586.78
2023-05-13T10:55:21.886Z,95594.53
2023-05-13T10:58:08.119Z,95592.56
2023-05-13T11:00:37.386Z,95600.53
2023-05-13T11:03:14.764Z,95594.97
2023-05-13T11:05:45.234Z,95598.00
2023-05-13T11:08:37.974Z,95601.19
2023-05-13T11:11:28.558Z,95601.59
2023-05-13T11:14:03.394Z,95598.38
2023-05-13T11:16:31.161Z,95600.44
2023-05-13T11:19:02.018Z,95608.38
2023-05-13T11:21:31.492Z,95600.56
2023-05-13T11:24:03.912Z,95602.34
2023-05-13T11:26:48.835Z,95608.13
2023-05-13T11:29:16.976Z,95605.22
2023-05-13T11:31:48.460Z,95608.25
2023-05-13T11:34:17.902Z,95605.81
2023-05-13T11:36:47.888Z,95613.09
2023-05-13T11:39:19.264Z,95607.84
2023-05-13T11:41:48.555Z,95612.56
2023-05-13T11:44:17.461Z,95610.78
2023-05-13T11:46:56.136Z,95615.22
2023-05-13T11:49:34.454Z,95616.00
2023-05-13T11:52:02.922Z,95610.25
2023-05-13T11:54:32.021Z,95617.97
2023-05-13T11:56:59.613Z,95616.28
2023-05-13T11:59:33.326Z,95608.72
2023-05-13T12:02:06.396Z,95607.34
2023-05-13T12:04:34.519Z,95620.28
2023-05-13T12:07:02.519Z,95621.31
2023-05-13T12:09:30.678Z,95613.94
2023-05-13T12:11:59.676Z,95618.88
2023-05-13T12:14:27.923Z,95626.25
2023-05-13T12:16:56.435Z,95622.16
2023-05-13T12:19:24.161Z,95621.75
2023-05-13T12:21:52.119Z,95622.34
2023-05-13T12:24:20.928Z,95622.91
2023-05-13T12:26:49.034Z,95620.38
2023-05-13T12:29:18.119Z,95611.72
2023-05-13T12:32:05.738Z,95615.34
2023-05-13T12:34:33.659Z,95616.13
2023-05-13T12:37:11.272Z,95615.31
2023-05-13T12:39:39.081Z,95606.06
2023-05-13T12:42:07.320Z,95610.38
2023-05-13T12:44:36.486Z,95611.78
2023-05-13T12:47:04.570Z,95613.09
2023-05-13T12:49:32.365Z,95609.44
2023-05-13T12:52:00.065Z,95605.06
2023-05-13T12:54:27.649Z,95612.09
2023-05-13T12:56:55.425Z,95611.47
2023-05-13T12:59:23.416Z,95614.22
2023-05-13T13:01:52.931Z,95619.09
2023-05-13T13:04:21.349Z,95617.66
2023-05-13T13:06:50.142Z,95625.84
2023-05-13T13:09:18.141Z,95627.44
2023-05-13T13:11:46.863Z,95624.09
2023-05-13T13:14:15.392Z,95626.06
2023-05-13T13:16:43.439Z,95629.88
2023-05-13T13:19:13.826Z,95639.25
2023-05-13T13:21:42.677Z,95631.28
2023-05-13T13:24:11.548Z,95637.59
2023-05-13T13:26:39.278Z,95622.00
2023-05-13T13:29:07.019Z,95626.41
2023-05-13T13:31:34.709Z,95622.44
2023-05-13T13:34:04.993Z,95621.56
2023-05-13T13:36:33.928Z,95624.81
2023-05-13T13:39:01.781Z,95620.13
2023-05-13T13:41:29.356Z,95621.19
2023-05-13T13:43:57.098Z,95627.81
2023-05-13T13:46:25.245Z,95622.59
2023-05-13T13:48:53.056Z,95618.13
2023-05-13T13:51:20.759Z,95612.84
2023-05-13T13:53:50.536Z,95621.47
2023-05-13T13:56:18.198Z,95615.00
2023-05-13T13:58:46.011Z,95610.00
2023-05-13T14:01:14.670Z,95614.91
2023-05-13T14:03:42.399Z,95598.69
2023-05-13T14:06:10.105Z,95602.13
2023-05-13T14:08:37.725Z,95605.13
2023-05-13T14:11:07.078Z,95601.97
2023-05-13T14:13:34.650Z,95601.28
2023-05-13T14:16:02.519Z,95602.53
2023-05-13T14:18:30.179Z,95598.47
2023-05-13T14:20:57.800Z,95604.75
2023-05-13T14:23:25.394Z,95601.47
2023-05-13T14:25:53.023Z,95596.56
2023-05-13T14:28:23.211Z,95596.03
2023-05-13T14:30:52.596Z,95604.13
2023-05-13T14:33:20.240Z,95599.50
2023-05-13T14:35:47.983Z,95605.50
2023-05-13T14:38:15.709Z,95596.09
2023-05-13T14:40:43.932Z,95586.88
2023-05-13T14:43:11.530Z,95587.03
2023-05-13T14:45:40.927Z,95593.13
2023-05-13T14:48:08.699Z,95593.88
2023-05-13T14:50:36.863Z,95586.97
2023-05-13T14:53:04.461Z,95585.59
2023-05-13T14:55:32.185Z,95579.31
2023-05-13T14:58:00.062Z,95574.88
2023-05-13T15:00:28.037Z,95570.69
2023-05-13T15:02:57.120Z,95562.91
2023-05-13T15:05:26.267Z,95573.19
2023-05-13T15:07:53.892Z,95562.41
2023-05-13T15:10:21.669Z,95558.13
2023-05-13T15:12:49.826Z,95550.88
2023-05-13T15:15:17.552Z,95555.78
2023-05-13T15:17:45.195Z,95550.91
2023-05-13T15:20:14.433Z,95557.41
2023-05-13T15:22:42.483Z,95548.03
2023-05-13T15:25:10.252Z,95551.94
2023-05-13T15:27:37.850Z,95544.13
2023-05-13T15:30:06.302Z,95545.25
2023-05-13T15:32:34.115Z,95548.16
2023-05-13T15:35:01.849Z,95547.09
2023-05-13T15:37:30.815Z,95552.47
2023-05-13T15:39:58.456Z,95552.56
2023-05-13T15:42:26.679Z,95545.16
2023-05-13T15:44:54.264Z,95549.75
2023-05-13T15:47:22.056Z,95544.66
2023-05-13T15:49:50.754Z,95544.75
2023-05-13T15:52:18.469Z,95543.06
2023-05-13T15:54:47.544Z,95542.91
2023-05-13T15:57:18.073Z,95549.22
2023-05-13T15:59:45.955Z,95550.13
2023-05-13T16:02:13.629Z,95546.19
2023-05-13T16:04:41.273Z,95537.34
2023-05-13T16:07:10.879Z,95543.03
2023-05-13T16:09:38.900Z,95542.47
2023-05-13T16:12:08.412Z,95538.88
2023-05-13T16:14:36.259Z,95542.22
2023-05-13T16:17:03.861Z,95540.91
2023-05-13T16:19:31.442Z,95548.19
2023-05-13T16:21:59.042Z,95541.91
2023-05-13T16:24:26.858Z,95536.66
2023-05-13T16:26:54.522Z,95536.97
2023-05-13T16:29:23.457Z,95533.97
2023-05-13T16:31:51.098Z,95528.44
2023-05-13T16:34:18.871Z,95537.63
2023-05-13T16:36:46.485Z,95527.06
2023-05-13T16:39:14.249Z,95528.41
2023-05-13T16:41:42.304Z,95528.81
2023-05-13T16:44:09.903Z,95529.34
2023-05-13T16:46:38.814Z,95528.63
2023-05-13T16:49:06.423Z,95532.84
2023-05-13T16:51:34.165Z,95533.22
2023-05-13T16:54:01.743Z,95535.44
2023-05-13T16:56:31.196Z,95529.44
2023-05-13T16:58:59.867Z,95531.50
2023-05-13T17:01:27.519Z,95531.97
2023-05-13T17:03:56.812Z,95530.34
2023-05-13T17:06:24.446Z,95526.56
2023-05-13T17:08:52.026Z,95524.91
2023-05-13T17:11:19.811Z,95527.38
2023-05-13T17:13:47.441Z,95521.66
2023-05-13T17:16:15.798Z,95526.19
2023-05-13T17:18:43.431Z,95529.88
2023-05-13T17:21:12.459Z,95525.81
2023-05-13T17:23:40.223Z,95520.34
2023-05-13T17:26:08.020Z,95519.75
2023-05-13T17:28:35.768Z,95526.25
2023-05-13T17:31:03.610Z,95527.50
2023-05-13T17:33:31.910Z,95525.06
2023-05-13T17:35:59.591Z,95522.66
2023-05-13T17:38:28.645Z,95524.25
2023-05-13T17:40:56.245Z,95526.94
2023-05-13T17:43:24.132Z,95532.72
2023-05-13T17:45:52.000Z,95541.75
2023-05-13T17:48:19.793Z,95532.53
2023-05-13T17:50:47.729Z,95533.00
2023-05-13T17:53:15.376Z,95538.16
2023-05-13T17:55:44.287Z,95543.75
2023-05-13T17:58:12.000Z,95534.03
2023-05-13T18:00:39.637Z,95543.47
2023-05-13T18:03:07.494Z,95540.72
2023-05-13T18:05:35.579Z,95548.53
2023-05-13T18:08:03.534Z,95539.59
2023-05-13T18:10:31.254Z,95536.34
2023-05-13T18:13:00.460Z,95546.56
2023-05-13T18:15:28.216Z,95541.28
2023-05-13T18:17:56.052Z,95545.41
2023-05-13T18:20:24.181Z,95548.94
2023-05-13T18:22:52.094Z,95553.47
2023-05-13T18:25:19.856Z,95551.47
2023-05-13T18:27:47.524Z,95540.03
2023-05-13T18:30:17.263Z,95549.44
2023-05-13T18:32:44.922Z,95550.94
2023-05-13T18:35:12.848Z,95554.03
2023-05-13T18:37:40.423Z,95552.00
2023-05-13T18:40:09.542Z,95555.91
2023-05-13T18:42:37.332Z,95548.16
2023-05-13T18:45:06.103Z,95556.34
2023-05-13T18:47:35.437Z,95553.06
2023-05-13T18:50:05.333Z,95562.94
2023-05-13T18:52:33.669Z,95553.16
2023-05-13T18:55:05.044Z,95555.22
2023-05-13T18:57:33.350Z,95561.75
2023-05-13T19:00:02.028Z,95565.66
2023-05-13T19:02:30.041Z,95567.13
2023-05-13T19:04:59.138Z,95572.84
2023-05-13T19:07:27.288Z,95569.59
2023-05-13T19:09:54.888Z,95576.38
2023-05-13T19:12:22.590Z,95574.09
2023-05-13T19:14:50.169Z,95579.84
2023-05-13T19:17:18.065Z,95578.22
2023-05-13T19:19:45.731Z,95583.97
2023-05-13T19:22:14.931Z,95586.44
2023-05-13T19:24:42.545Z,95579.50
2023-05-13T19:27:10.533Z,95587.69
2023-05-13T19:29:38.317Z,95572.56
2023-05-13T19:32:06.643Z,95582.75
2023-05-13T19:34:34.294Z,95578.28
2023-05-13T19:37:02.285Z,95585.63
2023-05-13T19:39:31.192Z,95582.38
2023-05-13T19:41:58.836Z,95579.50
2023-05-13T19:44:28.011Z,95585.22
2023-05-13T19:46:56.799Z,95577.09
2023-05-13T19:49:25.444Z,95587.72
2023-05-13T19:51:54.360Z,95569.75
2023-05-13T19:54:25.048Z,95579.56
2023-05-13T19:56:54.359Z,95576.91
2023-05-13T19:59:22.102Z,95576.28
2023-05-13T20:01:49.781Z,95573.03
2023-05-13T20:04:17.716Z,95565.47
2023-05-13T20:06:45.307Z,95566.72
2023-05-13T20:09:13.066Z,95560.38
2023-05-13T20:11:40.847Z,95555.28
2023-05-13T20:14:11.775Z,95551.59
2023-05-13T20:16:39.448Z,95556.53
2023-05-13T20:19:07.104Z,95556.72
2023-05-13T20:21:34.863Z,95559.78
2023-05-13T20:24:02.624Z,95555.50
2023-05-13T20:26:34.437Z,95546.94
2023-05-13T20:29:02.322Z,95553.06
2023-05-13T20:31:31.294Z,95554.53
2023-05-13T20:33:58.937Z,95553.09
2023-05-13T20:36:27.087Z,95553.09
2023-05-13T20:38:54.679Z,95541.28
2023-05-13T20:41:22.852Z,95545.34
2023-05-13T20:43:50.457Z,95535.53
2023-05-13T20:46:18.123Z,95545.34
2023-05-13T20:48:47.883Z,95533.09
2023-05-13T20:51:15.650Z,95535.16
2023-05-13T20:53:43.230Z,95538.81
2023-05-13T20:56:10.884Z,95540.47
2023-05-13T20:58:38.616Z,95535.16
2023-05-13T21:01:06.278Z,95533.53
2023-05-13T21:03:34.196Z,95533.53
2023-05-13T21:06:03.374Z,95544.13
2023-05-13T21:08:30.985Z,95531.25
2023-05-13T21:10:58.578Z,95529.25
2023-05-13T21:13:26.651Z,95522.91
2023-05-13T21:15:56.068Z,95521.69
2023-05-13T21:18:24.042Z,95519.03
2023-05-13T21:20:52.952Z,95528.22
2023-05-13T21:23:21.908Z,95521.06
2023-05-13T21:25:49.685Z,95531.31
2023-05-13T21:28:18.840Z,95524.56
2023-05-13T21:30:46.530Z,95519.25
2023-05-13T21:33:14.246Z,95517.22
2023-05-13T21:35:41.821Z,95514.38
2023-05-13T21:38:12.295Z,95513.75
2023-05-13T21:40:41.759Z,95512.94
2023-05-13T21:43:09.393Z,95511.72
2023-05-13T21:45:37.455Z,95516.84
2023-05-13T21:48:05.740Z,95515.59
2023-05-13T21:50:34.016Z,95513.75
2023-05-13T21:53:02.758Z,95524.78
2023-05-13T21:55:35.033Z,95529.72
2023-05-13T21:58:04.397Z,95525.00
2023-05-13T22:00:32.190Z,95518.50
2023-05-13T22:03:00.688Z,95513.19
2023-05-13T22:05:28.498Z,95519.72
2023-05-13T22:07:56.132Z,95527.06
2023-05-13T22:10:23.968Z,95518.47
2023-05-13T22:12:52.066Z,95516.03
2023-05-13T22:15:21.067Z,95520.13
2023-05-13T22:17:50.635Z,95514.22
2023-05-13T22:20:18.734Z,95521.53
2023-05-13T22:22:46.378Z,95518.06
2023-05-13T22:25:13.972Z,95515.22
2023-05-13T22:27:41.883Z,95514.78
2023-05-13T22:30:10.165Z,95522.16
2023-05-13T22:32:39.182Z,95519.69
2023-05-13T22:35:08.106Z,95511.91
2023-05-13T22:37:35.698Z,95509.09
2023-05-13T22:40:03.441Z,95514.78
2023-05-13T22:42:31.052Z,95517.63
2023-05-13T22:44:58.770Z,95513.13
2023-05-13T22:47:26.464Z,95509.88
2023-05-13T22:49:55.545Z,95511.94
2023-05-13T22:52:23.113Z,95513.72
2023-05-13T22:54:50.722Z,95509.66
2023-05-13T22:57:18.306Z,95505.59
2023-05-13T22:59:46.052Z,95511.47
2023-05-13T23:02:13.702Z,95505.38
2023-05-13T23:04:41.349Z,95497.19
2023-05-13T23:07:10.274Z,95504.94
2023-05-13T23:09:38.010Z,95503.69
2023-05-13T23:12:06.425Z,95507.34
2023-05-13T23:14:34.094Z,95504.09
2023-05-13T23:17:01.879Z,95488.16
2023-05-13T23:19:29.540Z,95488.59
2023-05-13T23:21:57.304Z,95487.34
2023-05-13T23:24:26.489Z,95493.03
2023-05-13T23:26:54.087Z,95487.31
2023-05-13T23:29:21.700Z,95483.88
2023-05-13T23:31:49.321Z,95486.50
2023-05-13T23:34:16.942Z,95475.94
2023-05-13T23:36:44.532Z,95479.59
2023-05-13T23:39:12.325Z,95479.59
2023-05-13T23:41:41.471Z,95468.59
2023-05-13T23:44:09.071Z,95472.69
2023-05-13T23:46:36.832Z,95468.41
2023-05-13T23:49:04.441Z,95467.00
2023-05-13T23:51:32.470Z,95467.41
2023-05-13T23:54:00.742Z,95463.34
2023-05-13T23:56:28.486Z,95474.75
2023-05-13T23:58:57.445Z,95468.25
